Time;durP1;ratioP1;P1;durP2;ratioP2;P2;SDS_P1;SDS_P2;PMS_P1;PMS_P2;Temp;Humidity;BMP_temperature;BMP_pressure;BME280_temperature;BME280_humidity;BME280_pressure;Samples;Min_cycle;Max_cycle;Signal;HPM_P1;HPM_P2
2021/01/25 00:01:29;;;;;;;40.35;27.02;;;;;;;0.39;100.00;99648.66;10447196;28;20036;-75
2021/01/25 00:06:32;;;;;;;37.90;26.13;;;;;;;0.34;100.00;99635.56;10408104;28;20029;-75
2021/01/25 00:11:32;;;;;;;37.30;25.73;;;;;;;0.02;100.00;99596.28;10451031;28;20079;-74
2021/01/25 00:16:33;;;;;;;39.70;26.77;;;;;;;0.41;100.00;99657.09;10433905;28;20033;-75
2021/01/25 00:21:33;;;;;;;39.95;26.70;;;;;;;0.14;100.00;99615.00;10444728;28;20037;-74
2021/01/25 00:26:34;;;;;;;36.55;25.83;;;;;;;0.53;100.00;99679.59;10443147;28;20551;-74
2021/01/25 00:31:34;;;;;;;36.38;25.67;;;;;;;0.39;100.00;99664.63;10448112;28;20057;-74
2021/01/25 00:36:35;;;;;;;37.65;25.38;;;;;;;0.51;100.00;99679.13;10439717;28;20043;-74
2021/01/25 00:41:35;;;;;;;36.78;25.98;;;;;;;0.45;100.00;99667.09;10399999;28;20140;-75
2021/01/25 00:46:36;;;;;;;39.42;28.15;;;;;;;0.47;100.00;99686.16;10420908;28;20579;-74
2021/01/25 00:51:36;;;;;;;38.40;27.30;;;;;;;0.57;100.00;99701.78;10441977;28;20063;-74
2021/01/25 00:56:36;;;;;;;38.30;25.92;;;;;;;0.46;100.00;99684.63;10437919;28;20053;-74
2021/01/25 01:01:37;;;;;;;35.90;25.88;;;;;;;0.51;100.00;99708.38;10441987;28;20037;-74
2021/01/25 01:06:41;;;;;;;38.80;24.98;;;;;;;0.55;100.00;99709.31;10412153;28;20067;-75
2021/01/25 01:11:41;;;;;;;35.90;25.70;;;;;;;0.37;100.00;99688.09;10441656;28;20033;-75
2021/01/25 01:16:42;;;;;;;35.80;25.38;;;;;;;0.56;100.00;99713.50;10438195;28;20037;-75
2021/01/25 01:21:42;;;;;;;36.50;24.25;;;;;;;0.49;100.00;99711.34;10421349;28;20036;-75
2021/01/25 01:26:45;;;;;;;40.35;25.00;;;;;;;0.36;100.00;99705.16;10449093;28;20041;-75
2021/01/25 01:31:45;;;;;;;32.08;23.05;;;;;;;0.24;100.00;99691.75;10441574;28;20029;-75
2021/01/25 01:36:46;;;;;;;34.42;23.17;;;;;;;0.37;100.00;99714.66;10438372;28;20045;-74
2021/01/25 01:41:46;;;;;;;31.10;21.48;;;;;;;0.39;100.00;99733.75;10436089;28;20106;-75
2021/01/25 01:46:47;;;;;;;30.60;22.00;;;;;;;0.39;100.00;99739.06;10445753;28;20083;-76
2021/01/25 01:51:47;;;;;;;29.27;20.45;;;;;;;0.15;100.00;99701.63;10409717;28;20128;-76
2021/01/25 01:56:48;;;;;;;32.72;20.95;;;;;;;0.33;100.00;99740.34;10445307;28;20534;-77
2021/01/25 02:01:48;;;;;;;29.48;20.58;;;;;;;0.40;100.00;99740.63;10448437;28;20064;-76
2021/01/25 02:06:52;;;;;;;30.38;19.92;;;;;;;0.26;100.00;99721.44;10436122;28;20037;-77
2021/01/25 02:11:53;;;;;;;27.43;19.17;;;;;;;0.37;100.00;99757.19;10407453;28;20036;-76
2021/01/25 02:16:53;;;;;;;33.42;20.75;;;;;;;0.58;100.00;99783.13;10415378;28;20593;-76
2021/01/25 02:22:07;;;;;;;31.95;22.08;;;;;;;-0.16;100.00;99676.06;10435103;28;20032;-76
2021/01/25 02:27:30;;;;;;;37.55;26.42;;;;;;;0.52;100.00;99779.06;10431398;28;20041;-76
2021/01/25 02:32:32;;;;;;;48.50;27.75;;;;;;;0.56;100.00;99795.94;10433264;28;20141;-77
2021/01/25 02:37:35;;;;;;;50.42;31.77;;;;;;;0.58;100.00;99815.03;10430968;28;20034;-77
2021/01/25 02:42:39;;;;;;;52.88;31.50;;;;;;;0.35;100.00;99798.50;10438792;28;20052;-77
2021/01/25 02:47:40;;;;;;;51.60;30.25;;;;;;;0.51;100.00;99810.19;10420255;28;20037;-76
2021/01/25 02:52:40;;;;;;;49.97;31.10;;;;;;;0.60;100.00;99815.50;10425128;28;20036;-76
2021/01/25 02:57:41;;;;;;;51.83;32.00;;;;;;;0.14;100.00;99753.19;10419593;28;20045;-76
2021/01/25 03:02:41;;;;;;;53.47;30.83;;;;;;;0.39;100.00;99797.56;10402034;28;20033;-76
2021/01/25 03:07:43;;;;;;;52.97;31.63;;;;;;;0.20;100.00;99778.50;10394257;28;20040;-76
2021/01/25 03:12:43;;;;;;;51.10;31.77;;;;;;;0.16;100.00;99777.56;10399014;28;20444;-77
2021/01/25 03:17:44;;;;;;;53.00;31.25;;;;;;;0.16;100.00;99782.88;10413180;28;20036;-75
2021/01/25 03:22:44;;;;;;;48.05;28.75;;;;;;;0.65;100.00;99857.88;10397323;28;20506;-76
2021/01/25 03:27:45;;;;;;;47.55;29.00;;;;;;;0.41;100.00;99816.63;10428671;28;20047;-75
2021/01/25 03:32:45;;;;;;;44.55;28.27;;;;;;;0.10;100.00;99778.84;10423364;28;20037;-76
2021/01/25 03:37:46;;;;;;;47.13;29.88;;;;;;;0.17;100.00;99805.72;10413956;28;20029;-76
2021/01/25 03:42:48;;;;;;;44.63;27.45;;;;;;;0.64;100.00;99866.97;10425817;28;20053;-77
2021/01/25 03:47:49;;;;;;;47.83;27.88;;;;;;;0.30;100.00;99820.69;10435090;28;20049;-76
2021/01/25 03:52:49;;;;;;;48.25;29.02;;;;;;;0.38;100.00;99849.16;10428108;28;20087;-76
2021/01/25 03:57:50;;;;;;;45.92;28.85;;;;;;;0.31;100.00;99838.22;10432833;28;20866;-76
2021/01/25 04:02:53;;;;;;;50.15;29.13;;;;;;;0.55;100.00;99866.19;10435996;28;20075;-75
2021/01/25 04:07:53;;;;;;;48.63;28.98;;;;;;;0.65;100.00;99897.00;10414138;28;20094;-75
2021/01/25 04:12:56;;;;;;;49.83;29.15;;;;;;;0.30;100.00;99852.59;10388545;28;20122;-75
2021/01/25 04:17:56;;;;;;;49.15;29.63;;;;;;;0.80;100.00;99926.56;10422919;28;20045;-76
2021/01/25 04:22:57;;;;;;;46.83;28.50;;;;;;;0.75;100.00;99932.06;10428359;28;20442;-75
2021/01/25 04:27:57;;;;;;;43.72;27.88;;;;;;;0.35;100.00;99881.72;10418027;28;20040;-75
2021/01/25 04:32:58;;;;;;;47.97;27.95;;;;;;;0.49;100.00;99907.34;10419469;28;20032;-76
2021/01/25 04:37:58;;;;;;;41.55;26.15;;;;;;;0.49;100.00;99902.00;10426839;28;20044;-75
2021/01/25 04:43:00;;;;;;;41.25;26.10;;;;;;;0.93;100.00;99963.94;10429555;28;20060;-75
2021/01/25 04:48:01;;;;;;;42.95;26.75;;;;;;;0.95;100.00;99956.44;10410412;28;20048;-75
2021/01/25 04:53:01;;;;;;;42.38;26.45;;;;;;;0.35;100.00;99884.38;10429573;28;20473;-75
2021/01/25 04:58:02;;;;;;;42.05;25.85;;;;;;;0.87;100.00;99959.88;10416812;28;20033;-75
2021/01/25 05:03:03;;;;;;;37.05;23.90;;;;;;;0.96;100.00;99989.91;10411131;28;20944;-74
2021/01/25 05:08:04;;;;;;;40.17;24.65;;;;;;;1.06;100.00;100010.91;10434533;28;20052;-75
2021/01/25 05:13:04;;;;;;;42.22;26.35;;;;;;;0.96;100.00;100016.53;10407486;28;20029;-75
2021/01/25 05:18:11;;;;;;;40.42;24.50;;;;;;;0.91;100.00;99993.53;10394578;28;20213;-74
2021/01/25 05:23:13;;;;;;;40.42;25.38;;;;;;;1.09;100.00;100025.47;10433244;28;20053;-72
2021/01/25 05:28:18;;;;;;;40.65;24.77;;;;;;;1.01;100.00;100024.34;10413731;28;20041;-73
2021/01/25 05:33:26;;;;;;;41.67;26.55;;;;;;;0.95;100.00;100021.06;10411094;28;20040;-73
2021/01/25 05:38:28;;;;;;;35.20;23.45;;;;;;;0.87;100.00;100023.72;10396206;28;20056;-76
2021/01/25 05:43:32;;;;;;;39.30;23.70;;;;;;;0.74;100.00;100012.16;10409070;28;20068;-75
2021/01/25 05:48:33;;;;;;;37.95;24.27;;;;;;;0.69;100.00;100013.09;10423117;28;20049;-77
2021/01/25 05:53:37;;;;;;;42.75;26.77;;;;;;;1.02;100.00;100071.16;10419824;28;20037;-77
2021/01/25 05:58:38;;;;;;;44.50;27.20;;;;;;;0.73;100.00;100045.97;10439197;28;20055;-75
2021/01/25 06:03:39;;;;;;;49.92;28.17;;;;;;;1.14;100.00;100100.59;10437003;28;20059;-76
2021/01/25 06:08:47;;;;;;;49.07;28.87;;;;;;;1.22;99.89;100110.47;10453422;28;20033;-75
2021/01/25 06:13:54;;;;;;;49.65;30.10;;;;;;;1.29;99.71;100125.19;10424226;28;20032;-76
2021/01/25 06:18:58;;;;;;;54.05;30.88;;;;;;;0.76;100.00;100082.59;10425772;28;20714;-75
2021/01/25 06:24:01;;;;;;;53.22;31.38;;;;;;;1.03;99.93;100128.63;10434825;28;20086;-75
2021/01/25 06:29:08;;;;;;;43.53;27.60;;;;;;;1.09;99.33;100122.06;10435349;28;20047;-77
2021/01/25 06:34:12;;;;;;;40.22;25.92;;;;;;;0.72;98.83;100086.94;10441310;28;20059;-75
2021/01/25 06:39:12;;;;;;;43.00;27.35;;;;;;;0.75;98.77;100107.63;10430530;28;20096;-75
2021/01/25 06:44:15;;;;;;;35.72;22.70;;;;;;;0.93;98.30;100128.94;10432961;28;20299;-75
2021/01/25 06:49:17;;;;;;;35.35;22.80;;;;;;;0.98;98.68;100179.34;10414493;28;20492;-79
2021/01/25 06:54:21;;;;;;;38.60;24.38;;;;;;;0.54;99.02;100122.56;10430544;28;20040;-76
2021/01/25 06:59:23;;;;;;;32.65;21.42;;;;;;;0.91;98.57;100168.38;10410329;28;20075;-75
2021/01/25 07:04:28;;;;;;;30.88;20.08;;;;;;;0.93;97.74;100198.13;10430586;28;20039;-75
2021/01/25 07:09:30;;;;;;;33.50;21.00;;;;;;;0.82;97.74;100203.75;10387354;28;20041;-75
2021/01/25 07:14:32;;;;;;;33.85;21.35;;;;;;;0.28;98.72;100173.78;10415148;28;20299;-77
2021/01/25 07:19:32;;;;;;;34.13;21.17;;;;;;;0.38;98.54;100221.41;10411186;28;20057;-78
2021/01/25 07:24:37;;;;;;;36.30;20.50;;;;;;;0.45;99.54;100257.38;10432464;28;20481;-76
2021/01/25 07:29:37;;;;;;;37.78;21.38;;;;;;;0.44;100.00;100282.41;10434223;28;20393;-78
2021/01/25 07:34:37;;;;;;;36.20;21.10;;;;;;;0.21;100.00;100221.28;10408628;28;20049;-75
2021/01/25 07:39:38;;;;;;;38.30;22.73;;;;;;;0.14;100.00;100220.94;10419752;28;20043;-78
2021/01/25 07:44:38;;;;;;;38.35;23.70;;;;;;;0.49;99.94;100269.00;10431397;28;20098;-75
2021/01/25 07:49:39;;;;;;;37.28;23.58;;;;;;;0.20;100.00;100235.69;10446569;28;20119;-75
2021/01/25 07:54:39;;;;;;;44.13;24.90;;;;;;;0.09;100.00;100276.88;10441653;28;20037;-75
2021/01/25 07:59:40;;;;;;;45.47;25.60;;;;;;;-0.02;100.00;100298.38;10431029;28;20048;-78
2021/01/25 08:04:43;;;;;;;42.83;25.77;;;;;;;0.09;100.00;100319.41;10448146;28;20037;-78
2021/01/25 08:09:44;;;;;;;47.10;27.45;;;;;;;-0.82;100.00;100182.25;10428435;28;20037;-75
2021/01/25 08:14:48;;;;;;;55.05;28.17;;;;;;;0.24;100.00;100369.56;10451030;28;20024;-76
2021/01/25 08:20:02;;;;;;;53.50;30.23;;;;;;;-0.43;100.00;100288.63;10447770;28;20040;-76
2021/01/25 08:25:03;;;;;;;60.10;30.48;;;;;;;0.19;100.00;100382.97;10441805;28;20037;-81
2021/01/25 08:30:08;;;;;;;56.00;30.13;;;;;;;-0.17;100.00;100322.63;10436552;28;20049;-80
2021/01/25 08:35:09;;;;;;;59.38;30.83;;;;;;;0.30;100.00;100394.94;10431437;28;20048;-80
2021/01/25 08:40:16;;;;;;;63.70;32.58;;;;;;;-0.03;100.00;100344.63;10448110;28;20029;-76
2021/01/25 08:45:23;;;;;;;63.10;32.45;;;;;;;0.39;100.00;100425.03;10438957;28;20041;-76
2021/01/25 08:50:26;;;;;;;61.47;31.33;;;;;;;0.44;100.00;100426.00;10437951;28;20064;-75
2021/01/25 08:55:48;;;;;;;59.65;31.92;;;;;;;0.44;100.00;100431.34;10434379;28;20512;-76
2021/01/25 09:00:48;;;;;;;60.85;32.90;;;;;;;0.15;100.00;100376.69;10418472;28;20059;-76
2021/01/25 09:05:54;;;;;;;66.25;34.22;;;;;;;0.45;100.00;100422.25;10412525;28;20041;-75
2021/01/25 09:10:56;;;;;;;53.83;31.33;;;;;;;0.20;100.00;100405.78;10422641;28;20051;-76
2021/01/25 09:15:57;;;;;;;70.60;36.70;;;;;;;1.36;100.00;100429.09;10399965;28;20086;-78
2021/01/25 09:20:57;;;;;;;29.83;18.40;;;;;;;3.12;91.12;100400.34;10435092;28;20455;-77
2021/01/25 09:25:58;;;;;;;20.27;14.32;;;;;;;5.79;76.35;100474.59;10412301;28;20079;-76
2021/01/25 09:30:58;;;;;;;19.55;13.75;;;;;;;6.94;68.84;100486.00;10429602;28;20397;-76
2021/01/25 09:35:58;;;;;;;18.20;13.48;;;;;;;7.54;65.72;100470.63;10420297;28;20139;-77
2021/01/25 09:40:59;;;;;;;19.38;13.68;;;;;;;8.17;63.56;100490.56;10420011;28;20033;-75
2021/01/25 09:45:59;;;;;;;15.80;12.43;;;;;;;8.07;62.23;100469.53;10437831;28;20065;-78
2021/01/25 09:51:00;;;;;;;19.13;13.15;;;;;;;8.71;59.53;100503.28;10425017;28;20152;-77
2021/01/25 09:56:01;;;;;;;16.13;12.63;;;;;;;8.09;61.41;100483.44;10436530;28;20059;-76
2021/01/25 10:01:01;;;;;;;21.27;14.73;;;;;;;6.65;65.78;100490.56;10431968;28;20040;-77
2021/01/25 10:06:02;;;;;;;19.98;15.13;;;;;;;5.33;73.30;100535.50;10430234;28;20453;-76
2021/01/25 10:11:06;;;;;;;18.55;13.68;;;;;;;5.67;73.16;100560.41;10438368;28;20041;-78
2021/01/25 10:16:07;;;;;;;18.40;12.68;;;;;;;6.16;68.71;100528.25;10428958;28;20033;-82
2021/01/25 10:21:07;;;;;;;18.48;12.13;;;;;;;6.45;67.58;100507.66;10429405;28;20045;-84
2021/01/25 10:26:08;;;;;;;17.70;12.55;;;;;;;6.69;66.94;100539.81;10442166;28;20573;-81
2021/01/25 10:31:08;;;;;;;15.80;12.50;;;;;;;6.81;69.16;100573.94;10448560;28;20084;-79
2021/01/25 10:36:09;;;;;;;17.10;11.73;;;;;;;6.59;68.64;100588.63;10425610;28;20095;-79
2021/01/25 10:41:11;;;;;;;12.65;8.32;;;;;;;6.32;67.90;100580.13;10427629;28;20048;-77
2021/01/25 10:46:13;;;;;;;14.80;10.15;;;;;;;5.60;70.15;100536.03;10452717;28;20045;-76
2021/01/25 10:51:14;;;;;;;15.27;10.02;;;;;;;5.50;72.62;100599.69;10451432;28;20059;-82
2021/01/25 10:56:14;;;;;;;17.13;10.00;;;;;;;4.19;74.46;100470.59;10460817;28;20437;-82
2021/01/25 11:01:15;;;;;;;15.48;11.25;;;;;;;5.15;76.78;100619.84;10468398;28;20082;-82
2021/01/25 11:06:16;;;;;;;19.08;11.70;;;;;;;5.03;78.11;100607.97;10438892;28;20036;-74
2021/01/25 11:11:20;;;;;;;20.88;11.45;;;;;;;5.00;78.33;100639.97;10449725;28;20430;-83
2021/01/25 11:16:20;;;;;;;16.27;11.82;;;;;;;4.88;78.03;100621.94;10461491;28;20044;-81
2021/01/25 11:21:21;;;;;;;18.08;12.25;;;;;;;4.81;79.14;100594.88;10451563;28;20032;-82
2021/01/25 11:26:23;;;;;;;24.20;13.68;;;;;;;5.32;78.32;100643.84;10460352;28;20568;-81
2021/01/25 11:31:24;;;;;;;17.40;12.48;;;;;;;5.25;77.33;100651.63;10470333;28;20032;-77
2021/01/25 11:36:25;;;;;;;18.65;12.30;;;;;;;4.97;78.49;100649.44;10464935;28;20090;-78
2021/01/25 11:41:25;;;;;;;20.30;12.45;;;;;;;5.06;78.32;100660.88;10437625;28;20036;-79
2021/01/25 11:46:26;;;;;;;19.50;13.18;;;;;;;4.49;79.20;100599.78;10422373;28;20053;-74
2021/01/25 11:51:26;;;;;;;17.33;12.25;;;;;;;4.80;79.87;100636.94;10404429;28;20045;-82
2021/01/25 11:56:27;;;;;;;17.83;12.88;;;;;;;4.85;79.56;100619.91;10410953;28;20037;-78
2021/01/25 12:01:27;;;;;;;17.17;11.52;;;;;;;4.89;80.67;100644.91;10427098;28;20025;-80
2021/01/25 12:06:28;;;;;;;15.57;9.43;;;;;;;5.21;78.71;100672.13;10425898;28;20041;-79
2021/01/25 12:11:28;;;;;;;15.70;8.95;;;;;;;5.21;76.74;100682.84;10415366;28;20069;-78
2021/01/25 12:16:29;;;;;;;12.25;7.88;;;;;;;5.23;75.57;100675.28;10389239;28;20933;-78
2021/01/25 12:21:29;;;;;;;16.40;9.55;;;;;;;5.33;77.55;100658.78;10387287;28;20037;-78
2021/01/25 12:26:30;;;;;;;16.70;10.45;;;;;;;5.18;77.72;100637.97;10408329;28;21004;-77
2021/01/25 12:31:31;;;;;;;16.25;8.65;;;;;;;4.94;77.84;100687.59;10382429;28;20108;-77
2021/01/25 12:36:32;;;;;;;14.63;8.27;;;;;;;5.06;79.38;100679.66;10411806;28;20063;-77
2021/01/25 12:41:33;;;;;;;14.25;8.32;;;;;;;5.27;78.14;100686.91;10410647;28;20063;-78
2021/01/25 12:46:34;;;;;;;16.08;7.95;;;;;;;4.90;77.24;100630.44;10392584;28;20050;-76
2021/01/25 12:51:35;;;;;;;16.27;8.17;;;;;;;5.50;77.79;100690.84;10428417;28;20124;-76
2021/01/25 12:56:35;;;;;;;8.00;4.70;;;;;;;5.79;76.86;100697.22;10403778;28;20033;-75
2021/01/25 13:01:36;;;;;;;9.43;4.40;;;;;;;5.95;75.39;100699.28;10435120;28;20053;-79
2021/01/25 13:06:38;;;;;;;6.53;1.52;;;;;;;6.11;74.74;100673.41;10428613;28;20045;-76
2021/01/25 13:11:38;;;;;;;8.88;0.98;;;;;;;5.86;73.57;100654.53;10434619;28;20047;-77
2021/01/25 13:16:39;;;;;;;7.18;1.45;;;;;;;6.09;73.51;100683.69;10433386;28;20482;-78
2021/01/25 13:21:39;;;;;;;8.55;1.02;;;;;;;5.72;72.75;100628.00;10432924;28;20080;-77
2021/01/25 13:26:40;;;;;;;6.13;1.00;;;;;;;6.01;72.36;100652.38;10423474;28;20034;-75
2021/01/25 13:31:40;;;;;;;2.50;1.13;;;;;;;6.46;70.43;100724.03;10421080;28;20045;-78
2021/01/25 13:36:42;;;;;;;3.22;0.80;;;;;;;6.24;69.62;100707.22;10420266;28;20033;-76
2021/01/25 13:41:42;;;;;;;3.42;0.90;;;;;;;5.44;70.85;100595.63;10436548;28;20402;-76
2021/01/25 13:46:43;;;;;;;5.35;0.88;;;;;;;5.84;71.21;100670.19;10426393;28;20056;-82
2021/01/25 13:51:43;;;;;;;4.55;0.95;;;;;;;5.69;66.65;100654.69;10428880;28;20044;-79
2021/01/25 13:56:44;;;;;;;4.60;0.80;;;;;;;5.42;68.38;100650.69;10424517;28;20088;-80
2021/01/25 14:01:44;;;;;;;3.38;1.10;;;;;;;6.07;69.31;100744.97;10416730;28;20041;-80
2021/01/25 14:06:45;;;;;;;8.68;1.38;;;;;;;5.98;70.18;100709.38;10434082;28;20075;-78
2021/01/25 14:11:46;;;;;;;5.38;1.00;;;;;;;6.22;70.35;100762.34;10424930;28;20485;-79
2021/01/25 14:16:46;;;;;;;6.80;1.40;;;;;;;5.99;70.08;100748.50;10426850;28;20036;-78
2021/01/25 14:21:46;;;;;;;4.15;1.00;;;;;;;6.15;66.96;100768.25;10421707;28;20029;-81
2021/01/25 14:26:47;;;;;;;2.60;0.75;;;;;;;5.59;61.96;100735.56;10405659;28;20103;-81
2021/01/25 14:31:47;;;;;;;7.65;1.60;;;;;;;5.69;65.39;100761.97;10407238;28;20046;-77
2021/01/25 14:36:48;;;;;;;6.40;1.00;;;;;;;5.63;65.39;100720.38;10432457;28;20378;-82
2021/01/25 14:41:49;;;;;;;2.58;0.73;;;;;;;6.04;64.43;100770.53;10412884;28;20041;-79
2021/01/25 14:46:51;;;;;;;5.05;0.85;;;;;;;6.01;63.53;100773.13;10436622;28;20079;-82
2021/01/25 14:51:51;;;;;;;3.00;0.63;;;;;;;5.23;64.38;100692.13;10425488;28;20107;-79
2021/01/25 14:56:52;;;;;;;5.00;1.00;;;;;;;5.34;65.33;100735.44;10418700;28;20064;-81
2021/01/25 15:01:52;;;;;;;6.75;1.30;;;;;;;5.17;67.90;100751.59;10409417;28;20112;-81
2021/01/25 15:06:53;;;;;;;4.30;1.40;;;;;;;5.25;69.96;100796.34;10414959;28;20064;-80
2021/01/25 15:11:53;;;;;;;3.80;1.45;;;;;;;4.80;69.86;100754.00;10426133;28;20029;-80
2021/01/25 15:16:56;;;;;;;6.18;1.25;;;;;;;4.73;69.85;100756.41;10423369;28;20067;-79
2021/01/25 15:21:56;;;;;;;4.70;1.15;;;;;;;4.51;70.48;100733.31;10432242;28;20564;-77
2021/01/25 15:26:57;;;;;;;5.53;1.30;;;;;;;4.65;71.82;100777.50;10426972;28;20048;-80
2021/01/25 15:31:58;;;;;;;3.60;1.08;;;;;;;4.62;71.83;100806.84;10424198;28;20490;-79
2021/01/25 15:36:58;;;;;;;3.78;1.42;;;;;;;4.70;71.46;100802.53;10421389;28;20091;-80
2021/01/25 15:41:58;;;;;;;6.30;1.20;;;;;;;4.78;71.36;100831.22;10412738;28;20036;-81
2021/01/25 15:46:59;;;;;;;4.75;0.90;;;;;;;4.41;71.69;100779.94;10419947;28;20061;-79
2021/01/25 15:52:05;;;;;;;5.05;1.50;;;;;;;4.82;72.10;100837.47;10436821;28;20037;-80
2021/01/25 15:57:06;;;;;;;7.32;1.55;;;;;;;4.76;73.28;100838.78;10423307;28;20628;-79
2021/01/25 16:02:07;;;;;;;6.03;1.20;;;;;;;4.28;74.20;100802.31;10403346;28;20029;-80
2021/01/25 16:07:07;;;;;;;5.50;1.20;;;;;;;4.36;75.04;100841.69;10410060;28;20064;-79
2021/01/25 16:12:08;;;;;;;5.50;1.00;;;;;;;4.41;74.78;100852.22;10417559;28;20677;-76
2021/01/25 16:17:10;;;;;;;6.20;1.48;;;;;;;4.01;76.34;100809.59;10426609;28;20048;-77
2021/01/25 16:22:11;;;;;;;9.20;1.33;;;;;;;3.91;78.15;100804.56;10419330;28;20816;-81
2021/01/25 16:27:12;;;;;;;6.47;1.77;;;;;;;4.19;79.01;100870.03;10406599;28;20041;-78
2021/01/25 16:32:12;;;;;;;6.78;1.77;;;;;;;3.84;80.07;100836.34;10427866;28;20232;-79
2021/01/25 16:37:13;;;;;;;8.65;2.17;;;;;;;3.90;81.08;100861.81;10430635;28;20041;-79
2021/01/25 16:42:13;;;;;;;8.27;2.03;;;;;;;3.92;81.23;100871.09;10427978;28;20044;-85
2021/01/25 16:47:14;;;;;;;5.25;1.80;;;;;;;3.94;82.39;100873.47;10437718;28;20489;-80
2021/01/25 16:52:14;;;;;;;6.45;2.33;;;;;;;3.85;82.56;100868.09;10431597;28;20040;-79
2021/01/25 16:57:15;;;;;;;13.88;2.47;;;;;;;3.83;82.49;100882.88;10465867;28;20469;-85
2021/01/25 17:02:15;;;;;;;7.95;2.10;;;;;;;3.76;82.65;100862.75;10471829;28;20041;-79
2021/01/25 17:07:16;;;;;;;9.93;2.15;;;;;;;3.71;82.44;100862.88;10474864;28;20044;-80
2021/01/25 17:12:16;;;;;;;11.63;2.80;;;;;;;3.62;83.91;100872.75;10459587;28;20352;-79
2021/01/25 17:17:16;;;;;;;5.85;2.35;;;;;;;3.76;84.27;100900.19;10453421;28;20036;-79
2021/01/25 17:22:17;;;;;;;11.55;2.90;;;;;;;3.59;84.74;100890.22;10444178;28;20637;-82
2021/01/25 17:27:18;;;;;;;9.63;3.38;;;;;;;3.63;85.43;100911.78;10457404;28;20051;-79
2021/01/25 17:32:19;;;;;;;12.88;2.85;;;;;;;3.69;85.52;100905.19;10447025;28;20097;-80
2021/01/25 17:37:21;;;;;;;9.52;2.40;;;;;;;3.10;86.20;100813.81;10455946;28;20146;-78
2021/01/25 17:42:22;;;;;;;12.50;3.58;;;;;;;3.41;86.98;100877.09;10479166;28;20041;-80
2021/01/25 17:47:23;;;;;;;20.42;4.20;;;;;;;3.27;86.73;100872.69;10432520;28;20041;-82
2021/01/25 17:52:23;;;;;;;13.35;2.78;;;;;;;3.54;87.68;100924.31;10439128;28;20131;-77
2021/01/25 17:57:24;;;;;;;12.32;2.72;;;;;;;3.65;89.18;100930.97;10432325;28;20425;-82
2021/01/25 18:02:24;;;;;;;6.35;2.50;;;;;;;3.58;89.52;100952.03;10400671;28;20112;-82
2021/01/25 18:07:25;;;;;;;12.32;3.53;;;;;;;3.60;89.92;100929.22;10429675;28;20537;-78
2021/01/25 18:12:25;;;;;;;14.32;3.70;;;;;;;3.66;89.95;100935.22;10425995;28;20627;-79
2021/01/25 18:17:26;;;;;;;12.60;2.88;;;;;;;3.68;90.38;100951.72;10418690;28;20721;-82
2021/01/25 18:22:27;;;;;;;15.00;3.00;;;;;;;3.72;89.78;100958.03;10434177;28;20036;-82
2021/01/25 18:27:27;;;;;;;13.23;2.35;;;;;;;3.49;89.18;100905.75;10409890;28;20048;-80
2021/01/25 18:32:28;;;;;;;14.93;3.08;;;;;;;3.88;88.53;100954.94;10410659;28;20037;-81
2021/01/25 18:37:29;;;;;;;18.50;3.45;;;;;;;3.53;87.47;100928.09;10426418;28;20045;-84
2021/01/25 18:42:32;;;;;;;15.15;2.70;;;;;;;3.85;87.23;100944.88;10420971;28;20145;-83
2021/01/25 18:47:33;;;;;;;15.68;2.30;;;;;;;3.76;86.08;100932.28;10422683;28;20045;-85
2021/01/25 18:52:34;;;;;;;14.70;4.93;;;;;;;4.10;85.79;100973.56;10422427;28;20075;-79
2021/01/25 18:57:35;;;;;;;16.13;3.28;;;;;;;3.78;85.52;100919.34;10391366;28;20039;-80
2021/01/25 19:02:35;;;;;;;12.70;2.72;;;;;;;4.09;85.73;100966.66;10397287;28;20389;-78
2021/01/25 19:07:36;;;;;;;13.40;3.28;;;;;;;4.24;85.67;100984.91;10423688;28;20039;-77
2021/01/25 19:12:37;;;;;;;16.08;3.35;;;;;;;3.89;85.57;100929.78;10411329;28;20067;-80
2021/01/25 19:17:38;;;;;;;17.73;4.05;;;;;;;4.19;85.76;100971.69;10422301;28;20045;-81
2021/01/25 19:22:38;;;;;;;25.77;7.50;;;;;;;4.01;85.83;100940.66;10388146;28;20052;-83
2021/01/25 19:27:39;;;;;;;16.00;4.72;;;;;;;3.88;85.76;100938.88;10388177;28;20036;-82
2021/01/25 19:32:39;;;;;;;23.92;6.57;;;;;;;4.22;86.64;100981.75;10420101;28;20074;-80
2021/01/25 19:37:41;;;;;;;18.92;4.55;;;;;;;4.08;86.98;100965.06;10402798;28;20116;-83
2021/01/25 19:42:41;;;;;;;16.88;4.38;;;;;;;4.03;87.40;100949.16;10409760;28;20044;-83
2021/01/25 19:47:42;;;;;;;25.90;6.30;;;;;;;4.23;86.69;100993.25;10433315;28;20072;-80
2021/01/25 19:52:43;;;;;;;21.45;4.82;;;;;;;4.44;86.16;101020.22;10429361;28;20450;-79
2021/01/25 19:57:45;;;;;;;21.50;5.03;;;;;;;3.53;86.07;100885.34;10429012;28;20033;-81
2021/01/25 20:02:46;;;;;;;14.45;4.10;;;;;;;4.31;86.24;101000.53;10398117;28;20045;-80
2021/01/25 20:07:47;;;;;;;19.80;4.80;;;;;;;3.99;86.77;100985.66;10431158;28;20448;-83
2021/01/25 20:12:51;;;;;;;21.75;4.95;;;;;;;4.42;86.76;101038.47;10441017;28;20116;-84
2021/01/25 20:17:52;;;;;;;17.15;4.88;;;;;;;4.38;86.56;101021.47;10448362;28;20025;-82
2021/01/25 20:23:03;;;;;;;23.70;4.93;;;;;;;4.04;86.03;100958.75;10431091;28;20037;-81
2021/01/25 20:28:35;;;;;;;22.67;4.32;;;;;;;4.09;85.64;100988.06;10424716;28;20074;-85
2021/01/25 20:33:52;;;;;;;14.63;5.28;;;;;;;4.15;85.64;100997.50;10440923;28;20476;-82
2021/01/25 20:38:54;;;;;;;22.40;5.15;;;;;;;3.99;85.68;100956.22;10440150;28;20033;-86
2021/01/25 20:43:58;;;;;;;17.33;4.07;;;;;;;3.10;85.30;100835.19;10435330;28;20511;-82
2021/01/25 20:49:02;;;;;;;16.85;6.50;;;;;;;3.33;84.78;100887.47;10415658;28;20044;-83
2021/01/25 20:54:04;;;;;;;17.58;5.93;;;;;;;3.84;85.59;100975.38;10411727;28;20071;-82
2021/01/25 20:59:04;;;;;;;21.00;5.57;;;;;;;4.48;86.27;101064.00;10417193;28;20091;-77
2021/01/25 21:04:06;;;;;;;18.10;4.82;;;;;;;4.55;85.85;101085.75;10414027;28;20094;-80
2021/01/25 21:09:06;;;;;;;19.15;4.07;;;;;;;4.21;85.64;101027.59;10398687;28;20517;-78
2021/01/25 21:14:07;;;;;;;22.63;4.10;;;;;;;4.11;86.27;101015.25;10433264;28;20048;-80
2021/01/25 21:19:08;;;;;;;21.60;4.40;;;;;;;4.31;86.59;101063.97;10405264;28;20110;-82
2021/01/25 21:24:09;;;;;;;15.40;3.88;;;;;;;4.41;85.32;101069.03;10405089;28;20049;-80
2021/01/25 21:29:09;;;;;;;21.95;4.40;;;;;;;4.56;85.02;101092.69;10414192;28;20102;-75
2021/01/25 21:34:10;;;;;;;16.08;3.20;;;;;;;4.28;84.42;101048.50;10428101;28;20045;-84
2021/01/25 21:39:11;;;;;;;16.45;3.35;;;;;;;4.40;85.00;101072.81;10401312;28;20049;-85
2021/01/25 21:44:11;;;;;;;19.08;3.92;;;;;;;4.11;84.67;101031.31;10421904;28;20048;-81
2021/01/25 21:49:11;;;;;;;14.15;4.10;;;;;;;4.56;84.55;101103.41;10432529;28;20041;-82
2021/01/25 21:54:12;;;;;;;22.45;4.75;;;;;;;4.14;84.18;101044.09;10429940;28;20076;-82
2021/01/25 21:59:12;;;;;;;13.32;3.65;;;;;;;4.42;84.24;101097.34;10396056;28;20069;-79
2021/01/25 22:04:13;;;;;;;13.50;3.65;;;;;;;4.50;84.20;101110.00;10411970;28;20048;-79
2021/01/25 22:09:14;;;;;;;21.98;3.85;;;;;;;4.18;84.89;101109.25;10422672;28;20092;-80
2021/01/25 22:14:14;;;;;;;18.90;3.78;;;;;;;4.33;85.65;101131.34;10398002;28;20052;-81
2021/01/25 22:19:15;;;;;;;17.40;3.03;;;;;;;4.34;84.95;101123.00;10432247;28;20496;-80
2021/01/25 22:24:16;;;;;;;14.32;3.85;;;;;;;4.36;85.38;101125.38;10400280;28;20110;-82
2021/01/25 22:29:17;;;;;;;18.70;3.13;;;;;;;4.13;85.96;101096.00;10416321;28;20048;-82
2021/01/25 22:34:17;;;;;;;16.88;3.00;;;;;;;4.28;85.53;101118.09;10432530;28;20041;-83
2021/01/25 22:39:17;;;;;;;13.65;4.13;;;;;;;4.50;85.20;101142.13;10426488;28;20481;-80
2021/01/25 22:44:18;;;;;;;19.10;3.47;;;;;;;4.46;85.04;101141.16;10418932;28;20057;-82
2021/01/25 22:49:18;;;;;;;20.27;3.13;;;;;;;3.94;85.41;101098.13;10388272;28;20045;-83
2021/01/25 22:54:19;;;;;;;15.80;3.22;;;;;;;4.16;85.47;101146.25;10406656;28;20040;-81
2021/01/25 22:59:19;;;;;;;14.73;3.25;;;;;;;4.03;85.83;101155.91;10403723;28;20478;-81